Mei Xian, China
Current Conditions -  °F | °C
As of 2:00 PM on Sunday 21 Dec 2014 (Local Time) from ZGOW Reporting Station
Clear Clear  
Wind Chill: 66°   Ceiling: Unl
Heat Index: 66°   Visibility: 6mi
Dew Point: 39°   Wind: 13mph
Humidity: 37%   Direction: 10°N
Pressure: 30.21"   Gusts: NA
Location:  24.3°N, 116.12°E
Report Text: ZGOW 210600Z 01006MPS CAVOK 19/04 Q1023 NOSIG
Loading
Personal Weather Stations






























Interactive Weather Map New forecast layout! Learn more

10-Day Weather Forecast

Advertisements
Track Severe Weather on mobile